Airfield :







YOU CAN JOIN US ON...

 
LOGIN :

Register | Disclaimer

   EN    FR    IT 

 









Legend :    VFR   Marginal VFR   IFR   Intensive IFR   Very Intensive IFR
Visi :
Ceiling :
>= 8 km
>= 3000ft
5 to 8 km
1000 to 3000 ft
1500m to 5 km
500 to 1000 ft
800 to 1500m
200 to 500 ft
< 800m
< 200 ft
Symbols :   Thunderstorms  Fog  Heavy snow  Heavy precipitations  Wind > 20 kt






- Airport Elevation : 501 ft
- IATA code : YWB


CYKG - Kangiqsujuaq (Wakeham Bay)

CURRENT METAR :
  • 271700Z 27017KT 250V310 6SM -SN DRSN SCT036 BKN046 BKN071 M15/M20 A2984 RMK SC3SC2AS2 SLP127

EXPIRED METARs :
  • 271647Z 25011G18KT 8SM -SN BKN045 BKN071 M16/M21 A2985 RMK SC6AS1 SLP130
  • 271600Z 29010KT 15SM VCSH SCT033 BKN071 BKN150 M16/M22 A2987 RMK SC3AS3AS1 VIS N 8 SLP137
  • 271500Z 28015KT 15SM FEW033 SCT076 BKN150 BKN230 M16/M22 A2988 RMK SC2AC1AS2CI1 SLP141

TAF AMD TAF CYKG
Valid from the 27 at 17:00 until the 27 at 22:00 UTC


271709Z 2717/2722 28015KT P6SM SCT030 BKN070
TEMPO 2717/2719 4SM -SN BKN020 OVC070
BECMG 2717/2719 26025G35KT
FM271900 26025G35KT 1/2SM -SN BLSN BKN030 OVC060
TEMPO 2719/2722 2SM -SN BLSN RMK NXT FCST WILL BE ISSUED AT 281445Z



MET'MAP, your aeronautical weather chart ! - Copyright ORBIFLY December 2007 - Disclaimer

ORBIFLY MET'MAP TEAM :

Programming & Development : Alexandra Zaïnal
Concept & original design : Baudouin d'Aumeries
Assistance for programming : Marc-Olivier Méhu
Technical & hardware support : Manuel Goepfert

Contact : metmap@orbifly.com




SOURCES & CREDITS :

   NOAA